createdAt,value
2019-01-27T00:02:33.084Z,68.7
2019-01-27T00:12:36.493Z,68.6
2019-01-27T00:22:39.945Z,68.9
2019-01-27T00:32:43.366Z,68.8
2019-01-27T00:42:46.773Z,68.9
2019-01-27T00:52:50.234Z,68.8
2019-01-27T01:02:53.619Z,69.7
2019-01-27T01:12:57.037Z,70.7
2019-01-27T01:23:00.464Z,70.3
2019-01-27T01:33:03.866Z,70.7
2019-01-27T01:43:07.269Z,70
2019-01-27T01:53:10.705Z,70.2
2019-01-27T02:03:14.101Z,70.6
2019-01-27T02:13:17.516Z,70.6
2019-01-27T02:23:20.943Z,70.9
2019-01-27T02:33:24.360Z,70.8
2019-01-27T02:43:27.772Z,72.7
2019-01-27T02:53:31.185Z,72.2
2019-01-27T03:03:34.633Z,71.9
2019-01-27T03:13:38.030Z,71.9
2019-01-27T03:23:41.493Z,71.2
2019-01-27T03:33:44.919Z,69.7
2019-01-27T03:43:48.336Z,70.9
2019-01-27T03:53:51.738Z,70.2
2019-01-27T04:03:55.186Z,69.5
2019-01-27T04:13:58.643Z,69.6
2019-01-27T04:24:02.099Z,68.8
2019-01-27T04:34:05.499Z,68.7
2019-01-27T04:44:08.896Z,68.5
2019-01-27T04:54:12.303Z,68.9
2019-01-27T05:04:16.600Z,69.1
2019-01-27T05:14:20.003Z,68.8
2019-01-27T05:24:23.400Z,68.6
2019-01-27T05:34:26.804Z,68.5
2019-01-27T05:44:30.253Z,68.8
2019-01-27T05:54:33.683Z,69
2019-01-27T06:04:37.125Z,69.4
2019-01-27T06:14:40.578Z,68.9
2019-01-27T06:24:43.996Z,68.9
2019-01-27T06:34:47.434Z,69.8
2019-01-27T06:44:50.849Z,75.2
2019-01-27T06:54:54.250Z,76.1
2019-01-27T07:04:57.685Z,77.7
2019-01-27T07:15:01.098Z,78.9
2019-01-27T07:25:04.518Z,80.9
2019-01-27T07:35:07.901Z,82
2019-01-27T07:45:11.290Z,81.3
2019-01-27T07:55:14.703Z,80.2
2019-01-27T08:05:18.156Z,78.6
2019-01-27T08:15:21.602Z,77.8
2019-01-27T08:25:24.996Z,78.3
2019-01-27T08:35:28.421Z,79.3
2019-01-27T08:45:31.846Z,80.7
2019-01-27T08:55:35.277Z,79.6
2019-01-27T09:05:38.674Z,81.3
2019-01-27T09:15:42.140Z,81.7
2019-01-27T09:25:45.535Z,81.1
2019-01-27T09:35:48.942Z,79.9
2019-01-27T09:46:11.198Z,79.3
2019-01-27T09:56:15.146Z,80.2
2019-01-27T10:06:18.544Z,78.1
2019-01-27T10:16:21.974Z,79.1
2019-01-27T10:26:25.387Z,76.7
2019-01-27T10:36:28.827Z,74.3
2019-01-27T10:46:32.229Z,73.1
2019-01-27T10:56:35.656Z,73.7
2019-01-27T11:06:39.059Z,72.2
2019-01-27T11:16:42.475Z,73.9
2019-01-27T11:26:45.909Z,73.3
2019-01-27T11:36:49.344Z,72.9
2019-01-27T11:46:52.754Z,74
2019-01-27T11:56:56.187Z,75
2019-01-27T12:06:59.640Z,78.8
2019-01-27T12:17:03.039Z,79.4
2019-01-27T12:27:06.420Z,78.7
2019-01-27T12:37:09.806Z,79.6
2019-01-27T12:47:13.206Z,79.2
2019-01-27T12:57:16.629Z,77.9
2019-01-27T13:07:20.035Z,75.7
2019-01-27T13:17:23.474Z,76.1
2019-01-27T13:27:26.909Z,76.2
2019-01-27T13:37:30.417Z,74.5
2019-01-27T13:47:33.825Z,75.3
2019-01-27T13:57:37.228Z,74.4
2019-01-27T14:07:40.661Z,74.5
2019-01-27T14:17:44.097Z,74.9
2019-01-27T14:27:47.534Z,73.8
2019-01-27T14:37:51.353Z,73.2
2019-01-27T14:47:54.755Z,72.7
2019-01-27T14:57:58.195Z,73.1
2019-01-27T15:08:01.620Z,71.9
2019-01-27T15:18:05.053Z,71.9
2019-01-27T15:28:08.493Z,71
2019-01-27T15:38:11.926Z,71.1
2019-01-27T15:48:15.341Z,70.9
2019-01-27T15:58:18.773Z,70.7
2019-01-27T16:08:22.201Z,72.3
2019-01-27T16:18:25.618Z,74.4
2019-01-27T16:28:29.007Z,74.5
2019-01-27T16:38:32.414Z,74.2
2019-01-27T16:48:35.878Z,76.4
2019-01-27T16:58:39.268Z,77.6
2019-01-27T17:08:42.707Z,78.3
2019-01-27T17:18:46.150Z,77.4
2019-01-27T17:28:49.565Z,78.5
2019-01-27T17:38:52.962Z,82.6
2019-01-27T17:48:56.359Z,81.7
2019-01-27T17:58:59.771Z,80.5
2019-01-27T18:09:03.206Z,79.7
2019-01-27T18:19:06.649Z,81.5
2019-01-27T18:29:10.357Z,83.2
2019-01-27T18:39:14.021Z,83.1
2019-01-27T18:49:17.526Z,84.3
2019-01-27T18:59:20.960Z,85.2
2019-01-27T19:09:24.383Z,85.3
2019-01-27T19:19:29.821Z,85.1
2019-01-27T19:29:33.256Z,84.7
2019-01-27T19:39:36.732Z,84.2
2019-01-27T19:49:40.168Z,84.1
2019-01-27T19:59:43.578Z,84.5
2019-01-27T20:09:47.047Z,83.5
2019-01-27T20:19:50.515Z,83.2
2019-01-27T20:29:53.913Z,84.1
2019-01-27T20:39:57.307Z,82.8
2019-01-27T20:50:00.726Z,81.6
2019-01-27T21:00:04.170Z,81.6
2019-01-27T21:10:12.621Z,82.6
2019-01-27T21:20:16.034Z,79.2
2019-01-27T21:30:19.447Z,78.5
2019-01-27T21:40:22.882Z,77.5
2019-01-27T21:50:26.374Z,77.4
2019-01-27T22:00:29.796Z,78
2019-01-27T22:10:33.221Z,77.1
2019-01-27T22:20:42.130Z,78
2019-01-27T22:30:45.559Z,79.4
2019-01-27T22:40:48.992Z,78.4
2019-01-27T22:50:52.426Z,79.1
2019-01-27T23:00:55.838Z,80
2019-01-27T23:10:59.241Z,81
2019-01-27T23:21:02.695Z,78.3
2019-01-27T23:31:06.131Z,79.6
2019-01-27T23:41:09.569Z,78.8
2019-01-27T23:51:13.022Z,79.8
